Time;durP1;ratioP1;P1;durP2;ratioP2;P2;SDS_P1;SDS_P2;PMS_P1;PMS_P2;Temp;Humidity;BMP_temperature;BMP_pressure;BME280_temperature;BME280_humidity;BME280_pressure;Samples;Min_cycle;Max_cycle;Signal;HPM_P1;HPM_P2
2023/08/21 00:00:36;;;;;;;8.40;3.40;;;;;;;;;;5056715;28;20039;-84
2023/08/21 00:03:21;;;;;;;10.23;2.83;;;;;;;;;;5071751;28;20051;-84
2023/08/21 00:06:06;;;;;;;5.90;2.60;;;;;;;;;;5072163;28;20510;-84
2023/08/21 00:08:51;;;;;;;6.70;2.88;;;;;;;;;;5072024;28;20099;-84
2023/08/21 00:11:35;;;;;;;7.75;2.80;;;;;;;;;;5071572;28;20054;-84
2023/08/21 00:14:20;;;;;;;7.72;2.63;;;;;;;;;;5071660;28;20043;-84
2023/08/21 00:17:04;;;;;;;7.85;2.47;;;;;;;;;;5072026;28;20086;-85
2023/08/21 00:19:49;;;;;;;5.68;2.60;;;;;;;;;;5071553;28;20063;-84
2023/08/21 00:22:33;;;;;;;7.40;2.60;;;;;;;;;;5056305;28;20035;-84
2023/08/21 00:25:18;;;;;;;7.85;3.03;;;;;;;;;;5071122;28;20468;-84
2023/08/21 00:28:02;;;;;;;4.95;2.60;;;;;;;;;;5071867;28;20043;-84
2023/08/21 00:30:47;;;;;;;9.68;3.20;;;;;;;;;;5071723;28;20052;-84
2023/08/21 00:33:32;;;;;;;6.95;2.58;;;;;;;;;;5070918;28;20496;-84
2023/08/21 00:36:19;;;;;;;5.75;2.47;;;;;;;;;;5071122;28;20086;-85
2023/08/21 00:39:04;;;;;;;6.25;2.60;;;;;;;;;;5068994;28;20147;-85
2023/08/21 00:41:48;;;;;;;5.88;2.55;;;;;;;;;;5070425;28;20211;-84
2023/08/21 00:44:33;;;;;;;6.78;2.90;;;;;;;;;;5063235;28;20051;-84
2023/08/21 00:47:19;;;;;;;5.50;2.47;;;;;;;;;;5069568;28;20400;-83
2023/08/21 00:50:04;;;;;;;9.63;2.58;;;;;;;;;;5071639;28;20090;-84
2023/08/21 00:52:50;;;;;;;7.05;2.65;;;;;;;;;;5044277;28;20039;-84
2023/08/21 00:55:35;;;;;;;8.27;3.05;;;;;;;;;;5070473;28;20114;-85
2023/08/21 00:58:19;;;;;;;4.95;2.00;;;;;;;;;;5055899;28;20055;-83
2023/08/21 01:01:04;;;;;;;6.07;2.50;;;;;;;;;;5070950;28;20051;-85
2023/08/21 01:03:49;;;;;;;5.70;2.30;;;;;;;;;;5071252;28;20083;-84
2023/08/21 01:06:34;;;;;;;5.28;2.40;;;;;;;;;;5070899;28;20035;-84
2023/08/21 01:09:28;;;;;;;6.57;2.35;;;;;;;;;;5070976;28;20082;-83
2023/08/21 01:12:23;;;;;;;4.97;2.47;;;;;;;;;;5060984;28;20040;-84
2023/08/21 01:15:09;;;;;;;7.95;2.70;;;;;;;;;;5071218;28;20591;-84
2023/08/21 01:17:54;;;;;;;6.95;2.42;;;;;;;;;;5070824;28;20194;-84
2023/08/21 01:20:40;;;;;;;10.25;2.65;;;;;;;;;;5072530;28;20110;-85
2023/08/21 01:23:43;;;;;;;7.50;2.70;;;;;;;;;;5070374;28;20474;-84
2023/08/21 01:26:28;;;;;;;7.28;2.97;;;;;;;;;;5055224;28;20082;-84
2023/08/21 01:29:12;;;;;;;8.77;3.00;;;;;;;;;;5071171;28;20039;-84
2023/08/21 01:31:57;;;;;;;6.55;2.60;;;;;;;;;;5070863;28;20411;-85
2023/08/21 01:34:42;;;;;;;8.20;3.03;;;;;;;;;;5070461;28;20316;-84
2023/08/21 01:37:27;;;;;;;4.90;2.10;;;;;;;;;;5070601;28;20036;-84
2023/08/21 01:40:12;;;;;;;6.30;2.40;;;;;;;;;;5070773;28;20067;-84
2023/08/21 01:42:56;;;;;;;7.15;2.70;;;;;;;;;;5070914;28;20074;-85
2023/08/21 01:45:41;;;;;;;6.15;2.90;;;;;;;;;;5070382;28;20593;-84
2023/08/21 01:50:49;;;;;;;7.07;2.70;;;;;;;;;;5149928;27;20429;-84
2023/08/21 01:53:34;;;;;;;7.53;3.00;;;;;;;;;;5133950;27;20505;-84
2023/08/21 01:56:18;;;;;;;5.82;2.38;;;;;;;;;;5150400;27;20038;-85
2023/08/21 01:59:04;;;;;;;5.55;2.17;;;;;;;;;;5150181;27;20122;-84
2023/08/21 02:01:49;;;;;;;7.20;3.22;;;;;;;;;;5149894;27;20553;-84
2023/08/21 02:04:34;;;;;;;7.43;2.80;;;;;;;;;;5122467;27;20042;-84
2023/08/21 02:07:18;;;;;;;6.63;2.38;;;;;;;;;;5150179;27;20042;-84
2023/08/21 02:10:04;;;;;;;8.15;3.13;;;;;;;;;;5119945;27;20096;-84
2023/08/21 02:12:49;;;;;;;6.13;2.53;;;;;;;;;;5133993;27;20041;-83
2023/08/21 02:15:34;;;;;;;6.78;2.70;;;;;;;;;;5149643;27;20042;-84
2023/08/21 02:18:18;;;;;;;7.35;3.05;;;;;;;;;;5149923;27;20163;-84
2023/08/21 02:21:03;;;;;;;9.98;3.38;;;;;;;;;;5101207;28;20453;-84
2023/08/21 02:23:47;;;;;;;7.78;2.72;;;;;;;;;;5122736;27;20041;-84
2023/08/21 02:26:32;;;;;;;8.50;2.70;;;;;;;;;;5149252;27;20056;-84
2023/08/21 02:29:16;;;;;;;7.07;2.60;;;;;;;;;;5134263;27;20064;-84
2023/08/21 02:32:01;;;;;;;5.63;3.00;;;;;;;;;;5149621;27;20385;-84
2023/08/21 02:34:45;;;;;;;8.88;3.58;;;;;;;;;;5149314;27;20181;-84
2023/08/21 02:37:30;;;;;;;5.32;3.10;;;;;;;;;;5149698;27;20034;-82
2023/08/21 02:40:15;;;;;;;6.35;3.08;;;;;;;;;;5120675;27;20547;-84
2023/08/21 02:42:59;;;;;;;6.93;2.83;;;;;;;;;;5141353;27;20401;-84
2023/08/21 02:45:44;;;;;;;3.80;2.28;;;;;;;;;;5148888;27;20146;-84
2023/08/21 02:48:28;;;;;;;7.03;2.42;;;;;;;;;;5148970;27;20075;-84
2023/08/21 02:51:12;;;;;;;7.68;2.97;;;;;;;;;;5133828;27;20065;-84
2023/08/21 02:53:57;;;;;;;7.25;2.85;;;;;;;;;;5131652;27;20038;-84
2023/08/21 02:56:41;;;;;;;7.72;3.17;;;;;;;;;;5128165;27;20188;-84
2023/08/21 02:59:26;;;;;;;9.10;2.70;;;;;;;;;;5112929;27;20436;-84
2023/08/21 03:02:11;;;;;;;6.15;2.80;;;;;;;;;;5114911;28;20406;-84
2023/08/21 03:04:55;;;;;;;7.25;3.88;;;;;;;;;;5114391;28;20131;-84
2023/08/21 03:07:40;;;;;;;4.28;2.45;;;;;;;;;;5098743;28;20132;-84
2023/08/21 03:10:26;;;;;;;6.70;3.03;;;;;;;;;;5114560;28;20112;-83
2023/08/21 03:13:11;;;;;;;6.60;3.60;;;;;;;;;;5103192;28;20115;-84
2023/08/21 03:15:55;;;;;;;7.45;3.40;;;;;;;;;;5114014;28;20039;-84
2023/08/21 03:19:00;;;;;;;10.18;4.05;;;;;;;;;;5114179;28;20521;-83
2023/08/21 03:21:44;;;;;;;;;;;14.10;99.90;;;;;;5103402;28;20101;-84
2023/08/21 03:24:29;;;;;;;5.75;2.95;;;;;;;;;;5114431;28;19918;-84
2023/08/21 03:27:16;;;;;;;7.97;2.88;;;;;;;;;;5114439;28;20114;-84
2023/08/21 03:30:01;;;;;;;6.97;2.78;;;;;;;;;;5100468;28;20074;-84
2023/08/21 03:32:46;;;;;;;5.38;2.40;;;;;;;;;;5113738;28;20494;-84
2023/08/21 03:35:30;;;;;;;4.57;2.35;;;;;;;;;;5114310;28;20080;-84
2023/08/21 03:38:15;;;;;;;9.00;2.80;;;;;;;;;;5098670;28;20038;-84
2023/08/21 03:40:59;;;;;;;10.25;2.90;;;;;;;;;;5113727;28;20403;-84
2023/08/21 03:43:44;;;;;;;5.45;3.15;;;;;;;;;;5113658;28;20088;-84
2023/08/21 03:46:29;;;;;;;8.40;3.33;;;;;;;;;;5113909;28;20096;-84
2023/08/21 03:49:13;;;;;;;6.43;3.03;;;;;;;;;;5113620;28;20062;-84
2023/08/21 03:51:57;;;;;;;8.35;3.40;;;;;;;;;;5113375;28;20041;-84
2023/08/21 03:54:42;;;;;;;5.03;2.80;;;;;;;;;;5113418;28;20208;-83
2023/08/21 03:57:27;;;;;;;10.00;3.20;;;;;;;;;;5102116;28;20039;-84
2023/08/21 04:00:11;;;;;;;7.22;2.80;;;;;;;;;;5098206;28;20084;-84
2023/08/21 04:02:56;;;;;;;7.25;2.78;;;;;;;;;;5097786;28;20074;-84
2023/08/21 04:05:40;;;;;;;7.32;2.80;;;;;;;;;;5113450;28;20042;-82
2023/08/21 04:08:25;;;;;;;7.53;2.90;;;;;;;;;;5098117;28;20088;-84
2023/08/21 04:11:10;;;;;;;5.32;2.50;;;;;;;;;;5112662;28;20039;-84
2023/08/21 04:13:55;;;;;;;7.15;2.45;;;;;;;;;;5111903;28;20066;-84
2023/08/21 04:16:39;;;;;;;4.47;2.35;;;;;;;;;;5113546;28;20109;-84
2023/08/21 04:19:25;;;;;;;6.78;2.45;;;;;;;;;;5104502;28;20038;-84
2023/08/21 04:22:09;;;;;;;5.45;2.60;;;;;;;;;;5092701;28;20093;-84
2023/08/21 04:24:54;;;;;;;7.45;2.50;;;;;;;;;;5112632;28;20053;-83
2023/08/21 04:27:39;;;;;;;6.50;2.47;;;;;;;;;;5112296;28;20055;-84
2023/08/21 04:30:23;;;;;;;7.22;2.47;;;;;;;;;;5097196;28;20066;-84
2023/08/21 04:33:08;;;;;;;5.82;2.70;;;;;;;;;;5096602;28;20077;-85
2023/08/21 04:41:09;;;;;;;7.45;2.75;;;;;;;;;;5112234;27;1276407;-85
2023/08/21 04:43:54;;;;;;;5.30;2.05;;;;;;;;;;5118344;28;20579;-83
2023/08/21 04:46:38;;;;;;;5.47;2.40;;;;;;;;;;5124786;28;20039;-84
2023/08/21 04:49:23;;;;;;;5.13;2.60;;;;;;;;;;5110915;28;20038;-84
2023/08/21 04:52:07;;;;;;;5.85;2.90;;;;;;;;;;5129056;28;20099;-84
2023/08/21 04:54:52;;;;;;;6.15;2.58;;;;;;;;;;5113382;28;20070;-84
2023/08/21 04:57:36;;;;;;;5.15;2.28;;;;;;;;;;5129603;28;20054;-84
2023/08/21 05:00:21;;;;;;;4.18;2.67;;;;;;;;;;5112854;28;20049;-84
2023/08/21 05:03:08;;;;;;;6.80;2.50;;;;;;;;;;5128513;28;20114;-83
2023/08/21 05:05:54;;;;;;;5.13;2.17;;;;;;;;;;5117289;28;20087;-84
2023/08/21 05:08:38;;;;;;;6.60;2.70;;;;;;;;;;5102545;28;20433;-84
2023/08/21 05:11:25;;;;;;;7.13;2.50;;;;;;;;;;5129225;28;20466;-84
2023/08/21 05:14:09;;;;;;;4.43;2.20;;;;;;;;;;5128665;28;20070;-84
2023/08/21 05:16:54;;;;;;;5.15;2.00;;;;;;;;;;5099856;28;20069;-84
2023/08/21 05:19:38;;;;;;;5.85;2.30;;;;;;;;;;5125413;28;20084;-84
2023/08/21 05:22:23;;;;;;;5.38;2.55;;;;;;;;;;5129034;28;20080;-84
2023/08/21 05:25:08;;;;;;;6.85;2.47;;;;;;;;;;5116995;28;20038;-83
2023/08/21 05:27:52;;;;;;;6.95;2.42;;;;;;;;;;5126752;28;20064;-83
2023/08/21 05:30:37;;;;;;;5.93;2.30;;;;;;;;;;5128700;28;20448;-84
2023/08/21 05:33:21;;;;;;;5.03;2.13;;;;;;;;;;5128913;28;20034;-83
2023/08/21 05:36:06;;;;;;;6.13;2.25;;;;;;;;;;5100416;28;20085;-84
2023/08/21 05:38:51;;;;;;;4.40;2.25;;;;;;;;;;5128780;28;20536;-84
2023/08/21 05:41:36;;;;;;;5.95;2.10;;;;;;;;;;5120305;28;20490;-84
2023/08/21 05:44:21;;;;;;;8.23;2.42;;;;;;;;;;5098081;28;20517;-84
2023/08/21 05:47:06;;;;;;;9.13;2.83;;;;;;;;;;5114276;28;20441;-84
2023/08/21 05:49:52;;;;;;;7.60;2.35;;;;;;;;;;5114477;28;20047;-84
2023/08/21 05:52:37;;;;;;;6.80;3.20;;;;;;;;;;5104373;28;20050;-84
2023/08/21 05:55:21;;;;;;;5.65;2.53;;;;;;;;;;5106658;28;20038;-83
2023/08/21 05:58:06;;;;;;;8.85;3.00;;;;;;;;;;5099184;28;20453;-84
2023/08/21 06:00:51;;;;;;;12.48;3.97;;;;;;;;;;5102389;28;20047;-83
2023/08/21 06:03:35;;;;;;;10.50;3.40;;;;;;;;;;5114578;28;20172;-83
2023/08/21 06:06:20;;;;;;;10.95;3.42;;;;;;;;;;5114182;28;20046;-83
2023/08/21 06:09:04;;;;;;;6.95;3.13;;;;;;;;;;5113765;28;20060;-84
2023/08/21 06:11:49;;;;;;;10.15;2.60;;;;;;;;;;5114541;28;20143;-84
2023/08/21 06:14:35;;;;;;;8.75;2.92;;;;;;;;;;5114515;28;20119;-84
2023/08/21 06:17:19;;;;;;;8.70;2.88;;;;;;;;;;5098276;28;20042;-83
2023/08/21 06:22:47;;;;;;;13.05;4.13;;;;;;;;;;5089087;28;20167;-83
2023/08/21 06:28:04;;;;;;;12.52;3.45;;;;;;;;;;5128793;27;20487;-84
2023/08/21 06:30:56;;;;;;;7.22;3.47;;;;;;;;;;5128649;28;20073;-84
2023/08/21 06:33:41;;;;;;;8.38;2.85;;;;;;;;;;5129852;28;20506;-83
2023/08/21 06:36:26;;;;;;;7.25;3.10;;;;;;;;;;5129757;28;20045;-84
2023/08/21 06:39:10;;;;;;;11.48;3.05;;;;;;;;;;5129008;28;20104;-84
2023/08/21 06:41:55;;;;;;;11.07;3.20;;;;;;;;;;5128746;28;20117;-83
2023/08/21 06:44:40;;;;;;;10.15;2.70;;;;;;;;;;5129459;28;20048;-83
2023/08/21 06:47:25;;;;;;;7.28;2.30;;;;;;;;;;5128010;28;20042;-84
2023/08/21 06:52:33;;;;;;;5.68;2.22;;;;;;;;;;5135913;27;1288969;-83
2023/08/21 06:55:18;;;;;;;7.95;2.50;;;;;;;;;;5150067;27;20038;-83
2023/08/21 06:58:02;;;;;;;8.52;2.53;;;;;;;;;;5150196;27;20042;-82
2023/08/21 07:00:47;;;;;;;6.65;2.17;;;;;;;;;;5150486;27;20422;-84
2023/08/21 07:03:32;;;;;;;7.60;2.53;;;;;;;;;;5149097;27;20458;-84
2023/08/21 07:06:16;;;;;;;6.03;2.00;;;;;;;;;;5149947;27;20034;-83
2023/08/21 07:09:01;;;;;;;7.25;2.00;;;;;;;;;;5150226;27;20543;-83
2023/08/21 07:11:45;;;;;;;6.88;2.20;;;;;;;;;;5150232;27;20475;-83
2023/08/21 07:14:30;;;;;;;8.32;1.98;;;;;;;;;;5149926;27;20064;-84
2023/08/21 07:17:14;;;;;;;7.63;2.05;;;;;;;;;;5135593;27;20045;-84
2023/08/21 07:19:59;;;;;;;6.63;1.90;;;;;;;;;;5150988;27;20058;-84
2023/08/21 07:22:44;;;;;;;5.50;1.85;;;;;;;;;;5158661;27;20046;-83
2023/08/21 07:25:28;;;;;;;8.20;2.05;;;;;;;;;;5169733;27;20042;-83
2023/08/21 07:28:13;;;;;;;8.75;1.83;;;;;;;;;;5164252;27;20038;-84
2023/08/21 07:30:58;;;;;;;5.45;1.88;;;;;;;;;;5161706;27;20054;-83
2023/08/21 07:33:43;;;;;;;5.07;1.20;;;;;;;;;;5161798;27;20416;-83
2023/08/21 07:36:27;;;;;;;6.03;1.50;;;;;;;;;;5155081;27;20038;-83
2023/08/21 07:39:12;;;;;;;6.45;1.40;;;;;;;;;;5156114;27;20038;-83
2023/08/21 07:41:56;;;;;;;3.90;1.35;;;;;;;;;;5161601;27;20041;-84
2023/08/21 07:44:41;;;;;;;4.43;1.38;;;;;;;;;;5165900;27;20034;-84
2023/08/21 07:47:27;;;;;;;7.78;2.05;;;;;;;;;;5168190;27;20033;-83
2023/08/21 07:50:14;;;;;;;5.85;1.23;;;;;;;;;;5169667;27;20033;-83
2023/08/21 07:52:59;;;;;;;5.03;1.30;;;;;;;;;;5158256;27;20150;-84
2023/08/21 07:55:43;;;;;;;6.32;1.50;;;;;;;;;;5161309;27;20091;-84
2023/08/21 07:58:28;;;;;;;6.93;1.60;;;;;;;;;;5163424;27;20083;-84
2023/08/21 08:01:12;;;;;;;4.40;1.25;;;;;;;;;;5155018;27;20041;-83
2023/08/21 08:03:57;;;;;;;2.65;1.15;;;;;;;;;;5151061;27;20118;-83
2023/08/21 08:06:41;;;;;;;5.00;1.30;;;;;;;;;;5135463;27;20067;-83
2023/08/21 08:09:26;;;;;;;4.72;1.40;;;;;;;;;;5134927;27;20065;-83
2023/08/21 08:12:11;;;;;;;4.20;1.27;;;;;;;;;;5135101;27;20550;-84
2023/08/21 08:14:55;;;;;;;6.03;1.45;;;;;;;;;;5135343;27;20037;-83
2023/08/21 08:17:40;;;;;;;5.68;1.13;;;;;;;;;;5136264;27;20045;-83
2023/08/21 08:20:24;;;;;;;6.03;1.30;;;;;;;;;;5135422;27;20034;-84
2023/08/21 08:23:09;;;;;;;4.35;1.33;;;;;;;;;;5155859;27;20042;-84
2023/08/21 08:25:53;;;;;;;2.90;1.10;;;;;;;;;;5155600;27;20390;-84
2023/08/21 08:28:38;;;;;;;2.78;1.20;;;;;;;;;;5148228;27;20046;-83
2023/08/21 08:31:24;;;;;;;7.60;1.38;;;;;;;;;;5120365;27;20091;-82
2023/08/21 08:34:09;;;;;;;2.88;1.17;;;;;;;;;;5141289;27;20465;-83
2023/08/21 08:36:54;;;;;;;3.47;1.30;;;;;;;;;;5135000;27;20484;-82
2023/08/21 08:39:38;;;;;;;5.75;1.25;;;;;;;;;;5134080;27;20107;-83
2023/08/21 08:42:23;;;;;;;4.70;1.35;;;;;;;;;;5148657;27;20045;-83
2023/08/21 08:47:42;;;;;;;3.35;1.20;;;;;;;;;;5093829;27;20409;-82
2023/08/21 08:50:27;;;;;;;5.32;1.27;;;;;;;;;;5087422;28;20111;-81
2023/08/21 08:53:13;;;;;;;4.32;1.17;;;;;;;;;;5088703;28;20394;-82
2023/08/21 08:55:58;;;;;;;4.78;1.02;;;;;;;;;;5087795;28;20039;-82
2023/08/21 08:58:43;;;;;;;3.58;1.10;;;;;;;;;;5077241;28;20078;-82
2023/08/21 09:01:28;;;;;;;6.45;1.20;;;;;;;;;;5088055;28;20445;-81
2023/08/21 09:04:13;;;;;;;4.97;1.40;;;;;;;;;;5075832;28;20123;-82
2023/08/21 09:07:11;;;;;;;5.30;1.17;;;;;;;;;;5087502;28;20082;-81
2023/08/21 09:09:55;;;;;;;6.90;1.60;;;;;;;;;;5087708;28;20491;-82
2023/08/21 09:12:40;;;;;;;4.43;1.25;;;;;;;;;;5088250;28;20650;-82
2023/08/21 09:15:29;;;;;;;4.50;1.33;;;;;;;;;;5087852;28;20066;-82
2023/08/21 09:18:15;;;;;;;6.03;1.23;;;;;;;;;;5088492;28;20104;-82
2023/08/21 09:21:02;;;;;;;5.63;1.50;;;;;;;;;;5088315;28;20035;-82
2023/08/21 09:23:47;;;;;;;4.85;1.23;;;;;;;;;;5087044;28;20074;-81
2023/08/21 09:26:32;;;;;;;5.25;2.35;;;;;;;;;;5088969;28;20043;-83
2023/08/21 09:29:18;;;;;;;4.75;1.33;;;;;;;;;;5089602;28;20031;-83
2023/08/21 09:32:02;;;;;;;4.57;1.20;;;;;;;;;;5087500;28;20404;-82
2023/08/21 09:39:42;;;;;;;3.30;1.58;;;;;;;;;;5073940;27;20403;-83
2023/08/21 09:42:27;;;;;;;6.45;1.30;;;;;;;;;;5067219;28;20151;-82
2023/08/21 09:45:12;;;;;;;4.63;1.50;;;;;;;;;;5064125;28;20555;-83
2023/08/21 09:47:58;;;;;;;4.70;1.30;;;;;;;;;;5068594;28;20123;-83
2023/08/21 09:50:43;;;;;;;5.65;1.50;;;;;;;;;;5058833;28;20106;-83
2023/08/21 09:53:28;;;;;;;5.35;1.45;;;;;;;;;;5065553;28;20039;-82
2023/08/21 09:56:13;;;;;;;5.85;1.30;;;;;;;;;;5067362;28;20409;-82
2023/08/21 09:58:58;;;;;;;5.38;1.23;;;;;;;;;;5068594;28;20051;-83
2023/08/21 10:01:43;;;;;;;6.10;1.27;;;;;;;;;;5067607;28;20059;-82
2023/08/21 10:04:30;;;;;;;4.03;1.65;;;;;;;;;;5067912;28;20538;-82
2023/08/21 10:07:16;;;;;;;3.42;1.20;;;;;;;;;;5068130;28;20598;-83
2023/08/21 10:10:01;;;;;;;4.45;1.33;;;;;;;;;;5068188;28;20458;-83
2023/08/21 10:12:46;;;;;;;3.83;1.40;;;;;;;;;;5067753;28;20515;-83
2023/08/21 10:15:32;;;;;;;4.78;1.23;;;;;;;;;;5063747;28;20461;-82
